sensor_id;sensor_type;location;lat;lon;timestamp;P1;durP1;ratioP1;P2;durP2;ratioP2
71462;SDS011;59266;52.608;13.260;2023-04-01T00:01:48;8.18;;;2.97;;
71462;SDS011;59266;52.608;13.260;2023-04-01T00:04:15;9.85;;;3.42;;
71462;SDS011;59266;52.608;13.260;2023-04-01T00:06:42;9.77;;;3.20;;
71462;SDS011;59266;52.608;13.260;2023-04-01T00:09:09;10.57;;;3.35;;
71462;SDS011;59266;52.608;13.260;2023-04-01T00:11:36;11.35;;;4.18;;
71462;SDS011;59266;52.608;13.260;2023-04-01T00:14:03;10.23;;;3.45;;
71462;SDS011;59266;52.608;13.260;2023-04-01T00:16:30;9.55;;;3.55;;
71462;SDS011;59266;52.608;13.260;2023-04-01T00:18:56;9.23;;;3.42;;
71462;SDS011;59266;52.608;13.260;2023-04-01T00:21:23;9.50;;;3.38;;
71462;SDS011;59266;52.608;13.260;2023-04-01T00:23:50;9.10;;;3.50;;
71462;SDS011;59266;52.608;13.260;2023-04-01T00:26:18;7.32;;;3.22;;
71462;SDS011;59266;52.608;13.260;2023-04-01T00:28:47;8.18;;;2.83;;
71462;SDS011;59266;52.608;13.260;2023-04-01T00:31:14;9.43;;;3.25;;
71462;SDS011;59266;52.608;13.260;2023-04-01T00:33:41;7.60;;;3.10;;
71462;SDS011;59266;52.608;13.260;2023-04-01T00:36:15;9.45;;;3.22;;
71462;SDS011;59266;52.608;13.260;2023-04-01T00:38:44;10.95;;;4.13;;
71462;SDS011;59266;52.608;13.260;2023-04-01T00:41:11;11.23;;;3.55;;
71462;SDS011;59266;52.608;13.260;2023-04-01T00:43:41;8.00;;;3.42;;
71462;SDS011;59266;52.608;13.260;2023-04-01T00:46:09;8.63;;;2.88;;
71462;SDS011;59266;52.608;13.260;2023-04-01T00:48:37;12.25;;;3.10;;
71462;SDS011;59266;52.608;13.260;2023-04-01T00:51:16;7.10;;;3.30;;
71462;SDS011;59266;52.608;13.260;2023-04-01T00:53:46;10.90;;;3.40;;
71462;SDS011;59266;52.608;13.260;2023-04-01T00:58:54;9.52;;;3.28;;
71462;SDS011;59266;52.608;13.260;2023-04-01T01:01:25;11.85;;;3.72;;
71462;SDS011;59266;52.608;13.260;2023-04-01T01:03:53;8.80;;;3.00;;
71462;SDS011;59266;52.608;13.260;2023-04-01T01:06:31;8.98;;;3.47;;
71462;SDS011;59266;52.608;13.260;2023-04-01T01:09:20;9.30;;;3.20;;
71462;SDS011;59266;52.608;13.260;2023-04-01T01:12:19;12.18;;;3.55;;
71462;SDS011;59266;52.608;13.260;2023-04-01T01:17:57;9.85;;;3.40;;
71462;SDS011;59266;52.608;13.260;2023-04-01T01:23:38;10.00;;;3.45;;
71462;SDS011;59266;52.608;13.260;2023-04-01T01:26:36;8.93;;;3.55;;
71462;SDS011;59266;52.608;13.260;2023-04-01T01:29:16;8.02;;;3.33;;
71462;SDS011;59266;52.608;13.260;2023-04-01T01:37:29;7.90;;;2.83;;
71462;SDS011;59266;52.608;13.260;2023-04-01T01:40:00;12.40;;;3.40;;
71462;SDS011;59266;52.608;13.260;2023-04-01T01:42:30;10.88;;;4.10;;
71462;SDS011;59266;52.608;13.260;2023-04-01T01:44:59;9.55;;;3.88;;
71462;SDS011;59266;52.608;13.260;2023-04-01T01:47:27;9.20;;;3.40;;
71462;SDS011;59266;52.608;13.260;2023-04-01T01:49:57;8.07;;;3.13;;
71462;SDS011;59266;52.608;13.260;2023-04-01T01:52:26;9.50;;;3.33;;
71462;SDS011;59266;52.608;13.260;2023-04-01T01:54:55;10.48;;;3.13;;
71462;SDS011;59266;52.608;13.260;2023-04-01T01:57:28;14.10;;;3.88;;
71462;SDS011;59266;52.608;13.260;2023-04-01T01:59:59;10.52;;;3.72;;
71462;SDS011;59266;52.608;13.260;2023-04-01T02:02:46;10.98;;;3.45;;
71462;SDS011;59266;52.608;13.260;2023-04-01T02:07:48;10.80;;;3.00;;
71462;SDS011;59266;52.608;13.260;2023-04-01T02:10:21;9.60;;;3.20;;
71462;SDS011;59266;52.608;13.260;2023-04-01T02:12:51;11.25;;;3.35;;
71462;SDS011;59266;52.608;13.260;2023-04-01T02:15:22;8.95;;;2.92;;
71462;SDS011;59266;52.608;13.260;2023-04-01T02:17:51;11.25;;;3.33;;
71462;SDS011;59266;52.608;13.260;2023-04-01T02:20:19;6.85;;;2.85;;
71462;SDS011;59266;52.608;13.260;2023-04-01T02:22:49;11.02;;;3.20;;
71462;SDS011;59266;52.608;13.260;2023-04-01T02:25:19;9.85;;;2.65;;
71462;SDS011;59266;52.608;13.260;2023-04-01T02:27:53;8.00;;;3.42;;
71462;SDS011;59266;52.608;13.260;2023-04-01T02:30:22;9.55;;;3.10;;
71462;SDS011;59266;52.608;13.260;2023-04-01T02:32:51;11.30;;;3.08;;
71462;SDS011;59266;52.608;13.260;2023-04-01T02:35:20;8.25;;;2.95;;
71462;SDS011;59266;52.608;13.260;2023-04-01T02:37:48;8.50;;;2.80;;
71462;SDS011;59266;52.608;13.260;2023-04-01T02:40:19;7.35;;;2.65;;
71462;SDS011;59266;52.608;13.260;2023-04-01T02:42:46;10.88;;;3.10;;
71462;SDS011;59266;52.608;13.260;2023-04-01T02:45:13;10.60;;;3.08;;
71462;SDS011;59266;52.608;13.260;2023-04-01T02:47:42;10.63;;;2.80;;
71462;SDS011;59266;52.608;13.260;2023-04-01T02:50:09;9.75;;;3.22;;
71462;SDS011;59266;52.608;13.260;2023-04-01T02:52:38;8.80;;;3.17;;
71462;SDS011;59266;52.608;13.260;2023-04-01T02:55:05;9.95;;;3.22;;
71462;SDS011;59266;52.608;13.260;2023-04-01T02:57:34;9.93;;;3.42;;
71462;SDS011;59266;52.608;13.260;2023-04-01T03:00:01;8.80;;;3.33;;
71462;SDS011;59266;52.608;13.260;2023-04-01T03:02:31;11.35;;;3.75;;
71462;SDS011;59266;52.608;13.260;2023-04-01T03:04:58;12.57;;;3.45;;
71462;SDS011;59266;52.608;13.260;2023-04-01T03:07:24;9.48;;;3.53;;
71462;SDS011;59266;52.608;13.260;2023-04-01T03:09:51;9.05;;;3.30;;
71462;SDS011;59266;52.608;13.260;2023-04-01T03:12:17;8.45;;;2.90;;
71462;SDS011;59266;52.608;13.260;2023-04-01T03:14:44;10.32;;;3.00;;
71462;SDS011;59266;52.608;13.260;2023-04-01T03:17:12;8.68;;;2.70;;
71462;SDS011;59266;52.608;13.260;2023-04-01T03:19:41;9.52;;;3.33;;
71462;SDS011;59266;52.608;13.260;2023-04-01T03:22:09;9.73;;;3.53;;
71462;SDS011;59266;52.608;13.260;2023-04-01T03:24:38;11.45;;;3.78;;
71462;SDS011;59266;52.608;13.260;2023-04-01T03:27:06;10.95;;;3.00;;
71462;SDS011;59266;52.608;13.260;2023-04-01T03:29:33;8.65;;;2.78;;
71462;SDS011;59266;52.608;13.260;2023-04-01T03:31:59;11.50;;;3.65;;
71462;SDS011;59266;52.608;13.260;2023-04-01T03:34:27;12.50;;;3.53;;
71462;SDS011;59266;52.608;13.260;2023-04-01T03:36:54;8.60;;;2.83;;
71462;SDS011;59266;52.608;13.260;2023-04-01T03:39:22;12.90;;;3.25;;
71462;SDS011;59266;52.608;13.260;2023-04-01T03:41:49;12.82;;;3.80;;
71462;SDS011;59266;52.608;13.260;2023-04-01T03:44:16;12.50;;;3.22;;
71462;SDS011;59266;52.608;13.260;2023-04-01T03:46:42;9.98;;;3.30;;
71462;SDS011;59266;52.608;13.260;2023-04-01T03:49:11;12.27;;;3.40;;
71462;SDS011;59266;52.608;13.260;2023-04-01T03:51:38;11.30;;;2.83;;
71462;SDS011;59266;52.608;13.260;2023-04-01T03:54:06;10.05;;;3.00;;
71462;SDS011;59266;52.608;13.260;2023-04-01T03:56:32;15.88;;;3.92;;
71462;SDS011;59266;52.608;13.260;2023-04-01T03:59:04;11.82;;;3.55;;
71462;SDS011;59266;52.608;13.260;2023-04-01T04:01:32;8.68;;;3.22;;
71462;SDS011;59266;52.608;13.260;2023-04-01T04:03:59;12.40;;;3.30;;
71462;SDS011;59266;52.608;13.260;2023-04-01T04:06:27;14.90;;;4.03;;
71462;SDS011;59266;52.608;13.260;2023-04-01T04:08:53;13.50;;;4.03;;
71462;SDS011;59266;52.608;13.260;2023-04-01T04:11:20;11.90;;;3.55;;
71462;SDS011;59266;52.608;13.260;2023-04-01T04:13:48;14.55;;;3.90;;
71462;SDS011;59266;52.608;13.260;2023-04-01T04:16:15;15.23;;;3.65;;
71462;SDS011;59266;52.608;13.260;2023-04-01T04:18:43;13.57;;;4.15;;
71462;SDS011;59266;52.608;13.260;2023-04-01T04:21:13;9.98;;;3.53;;
71462;SDS011;59266;52.608;13.260;2023-04-01T04:23:41;11.88;;;3.65;;
71462;SDS011;59266;52.608;13.260;2023-04-01T04:26:13;17.77;;;4.15;;
71462;SDS011;59266;52.608;13.260;2023-04-01T04:28:42;13.20;;;4.03;;
71462;SDS011;59266;52.608;13.260;2023-04-01T04:31:08;15.00;;;4.35;;
71462;SDS011;59266;52.608;13.260;2023-04-01T04:33:35;15.50;;;4.25;;
71462;SDS011;59266;52.608;13.260;2023-04-01T04:36:03;15.55;;;3.67;;
71462;SDS011;59266;52.608;13.260;2023-04-01T04:38:31;13.32;;;3.83;;
71462;SDS011;59266;52.608;13.260;2023-04-01T04:40:57;16.35;;;4.57;;
71462;SDS011;59266;52.608;13.260;2023-04-01T04:43:24;11.88;;;3.70;;
71462;SDS011;59266;52.608;13.260;2023-04-01T04:45:51;9.48;;;3.45;;
71462;SDS011;59266;52.608;13.260;2023-04-01T04:48:25;15.25;;;4.32;;
71462;SDS011;59266;52.608;13.260;2023-04-01T04:50:52;13.63;;;4.22;;
71462;SDS011;59266;52.608;13.260;2023-04-01T04:53:19;13.35;;;3.60;;
71462;SDS011;59266;52.608;13.260;2023-04-01T04:55:47;12.00;;;3.97;;
71462;SDS011;59266;52.608;13.260;2023-04-01T04:58:15;12.55;;;3.80;;
71462;SDS011;59266;52.608;13.260;2023-04-01T05:00:42;11.57;;;3.63;;
71462;SDS011;59266;52.608;13.260;2023-04-01T05:03:11;12.65;;;3.92;;
71462;SDS011;59266;52.608;13.260;2023-04-01T05:05:38;12.93;;;4.30;;
71462;SDS011;59266;52.608;13.260;2023-04-01T05:08:05;13.07;;;4.07;;
71462;SDS011;59266;52.608;13.260;2023-04-01T05:10:33;15.50;;;3.97;;
71462;SDS011;59266;52.608;13.260;2023-04-01T05:13:00;9.60;;;3.75;;
71462;SDS011;59266;52.608;13.260;2023-04-01T05:15:27;11.93;;;3.92;;
71462;SDS011;59266;52.608;13.260;2023-04-01T05:17:54;15.43;;;4.15;;
71462;SDS011;59266;52.608;13.260;2023-04-01T05:20:20;12.60;;;3.63;;
71462;SDS011;59266;52.608;13.260;2023-04-01T05:22:47;11.95;;;3.53;;
71462;SDS011;59266;52.608;13.260;2023-04-01T05:25:15;12.43;;;3.45;;
71462;SDS011;59266;52.608;13.260;2023-04-01T05:27:42;13.85;;;3.55;;
71462;SDS011;59266;52.608;13.260;2023-04-01T05:30:09;12.13;;;3.70;;
71462;SDS011;59266;52.608;13.260;2023-04-01T05:32:36;9.30;;;3.33;;
71462;SDS011;59266;52.608;13.260;2023-04-01T05:35:04;12.82;;;3.50;;
71462;SDS011;59266;52.608;13.260;2023-04-01T05:37:33;12.35;;;3.72;;
71462;SDS011;59266;52.608;13.260;2023-04-01T05:40:00;10.18;;;3.20;;
71462;SDS011;59266;52.608;13.260;2023-04-01T05:42:27;11.80;;;3.85;;
71462;SDS011;59266;52.608;13.260;2023-04-01T05:44:54;13.55;;;3.75;;
71462;SDS011;59266;52.608;13.260;2023-04-01T05:47:22;12.30;;;3.70;;
71462;SDS011;59266;52.608;13.260;2023-04-01T05:49:48;12.18;;;3.88;;
71462;SDS011;59266;52.608;13.260;2023-04-01T05:52:15;11.23;;;3.50;;
71462;SDS011;59266;52.608;13.260;2023-04-01T05:54:42;12.50;;;3.85;;
71462;SDS011;59266;52.608;13.260;2023-04-01T05:57:08;10.88;;;3.33;;
71462;SDS011;59266;52.608;13.260;2023-04-01T05:59:35;11.02;;;3.78;;
71462;SDS011;59266;52.608;13.260;2023-04-01T06:02:03;10.65;;;3.90;;
71462;SDS011;59266;52.608;13.260;2023-04-01T06:04:32;12.68;;;3.70;;
71462;SDS011;59266;52.608;13.260;2023-04-01T06:07:16;13.70;;;3.50;;
71462;SDS011;59266;52.608;13.260;2023-04-01T06:09:44;11.02;;;3.83;;
71462;SDS011;59266;52.608;13.260;2023-04-01T06:12:18;10.45;;;3.58;;
71462;SDS011;59266;52.608;13.260;2023-04-01T06:20:50;10.00;;;3.88;;
71462;SDS011;59266;52.608;13.260;2023-04-01T06:24:00;7.80;;;3.25;;
71462;SDS011;59266;52.608;13.260;2023-04-01T06:32:35;11.88;;;3.53;;
71462;SDS011;59266;52.608;13.260;2023-04-01T06:35:27;10.15;;;3.53;;
71462;SDS011;59266;52.608;13.260;2023-04-01T06:44:16;9.52;;;3.50;;
71462;SDS011;59266;52.608;13.260;2023-04-01T06:46:31;11.20;;;3.58;;
71462;SDS011;59266;52.608;13.260;2023-04-01T06:52:22;9.50;;;3.53;;
71462;SDS011;59266;52.608;13.260;2023-04-01T06:54:52;9.65;;;3.50;;
71462;SDS011;59266;52.608;13.260;2023-04-01T07:00:00;11.55;;;3.90;;
71462;SDS011;59266;52.608;13.260;2023-04-01T07:02:48;12.07;;;3.72;;
71462;SDS011;59266;52.608;13.260;2023-04-01T07:05:22;12.23;;;3.50;;
71462;SDS011;59266;52.608;13.260;2023-04-01T07:07:50;12.55;;;3.85;;
71462;SDS011;59266;52.608;13.260;2023-04-01T07:10:23;9.98;;;3.67;;
71462;SDS011;59266;52.608;13.260;2023-04-01T07:12:58;12.80;;;3.70;;
71462;SDS011;59266;52.608;13.260;2023-04-01T07:15:30;10.63;;;3.75;;
71462;SDS011;59266;52.608;13.260;2023-04-01T07:18:04;11.25;;;4.38;;
71462;SDS011;59266;52.608;13.260;2023-04-01T07:20:39;13.93;;;4.10;;
71462;SDS011;59266;52.608;13.260;2023-04-01T07:23:08;10.35;;;4.35;;
71462;SDS011;59266;52.608;13.260;2023-04-01T07:25:43;9.18;;;3.80;;
71462;SDS011;59266;52.608;13.260;2023-04-01T07:28:13;10.25;;;3.72;;
71462;SDS011;59266;52.608;13.260;2023-04-01T07:33:51;8.82;;;3.70;;
71462;SDS011;59266;52.608;13.260;2023-04-01T07:36:39;9.20;;;4.15;;
71462;SDS011;59266;52.608;13.260;2023-04-01T07:44:56;9.45;;;3.47;;
71462;SDS011;59266;52.608;13.260;2023-04-01T07:47:34;9.75;;;4.15;;
71462;SDS011;59266;52.608;13.260;2023-04-01T07:50:28;9.52;;;3.08;;
71462;SDS011;59266;52.608;13.260;2023-04-01T07:53:04;8.10;;;3.13;;
71462;SDS011;59266;52.608;13.260;2023-04-01T08:01:49;6.20;;;2.00;;
71462;SDS011;59266;52.608;13.260;2023-04-01T08:06:58;5.90;;;2.17;;
71462;SDS011;59266;52.608;13.260;2023-04-01T08:09:38;6.80;;;2.38;;
71462;SDS011;59266;52.608;13.260;2023-04-01T08:17:49;7.35;;;2.45;;
71462;SDS011;59266;52.608;13.260;2023-04-01T08:20:28;5.97;;;2.00;;
71462;SDS011;59266;52.608;13.260;2023-04-01T08:23:11;7.88;;;2.45;;
71462;SDS011;59266;52.608;13.260;2023-04-01T08:25:40;8.73;;;2.60;;
71462;SDS011;59266;52.608;13.260;2023-04-01T08:28:19;7.50;;;2.58;;
71462;SDS011;59266;52.608;13.260;2023-04-01T08:30:52;7.22;;;2.67;;
71462;SDS011;59266;52.608;13.260;2023-04-01T08:33:31;11.48;;;3.22;;
71462;SDS011;59266;52.608;13.260;2023-04-01T08:38:47;7.57;;;3.15;;
71462;SDS011;59266;52.608;13.260;2023-04-01T08:44:24;7.45;;;3.08;;
71462;SDS011;59266;52.608;13.260;2023-04-01T08:52:57;8.68;;;3.60;;
71462;SDS011;59266;52.608;13.260;2023-04-01T08:58:52;8.50;;;3.90;;
71462;SDS011;59266;52.608;13.260;2023-04-01T09:10:18;13.13;;;6.13;;
71462;SDS011;59266;52.608;13.260;2023-04-01T09:13:22;12.45;;;5.75;;
71462;SDS011;59266;52.608;13.260;2023-04-01T09:25:01;14.88;;;5.85;;
71462;SDS011;59266;52.608;13.260;2023-04-01T09:36:32;10.70;;;5.15;;
71462;SDS011;59266;52.608;13.260;2023-04-01T09:39:38;9.82;;;5.03;;
71462;SDS011;59266;52.608;13.260;2023-04-01T09:42:33;10.82;;;4.70;;
71462;SDS011;59266;52.608;13.260;2023-04-01T09:48:04;12.45;;;5.15;;
71462;SDS011;59266;52.608;13.260;2023-04-01T09:56:52;11.82;;;5.03;;
71462;SDS011;59266;52.608;13.260;2023-04-01T09:59:46;10.68;;;5.32;;
71462;SDS011;59266;52.608;13.260;2023-04-01T10:05:48;8.80;;;4.60;;
71462;SDS011;59266;52.608;13.260;2023-04-01T10:08:45;9.20;;;4.70;;
71462;SDS011;59266;52.608;13.260;2023-04-01T10:17:35;11.02;;;5.57;;
71462;SDS011;59266;52.608;13.260;2023-04-01T10:20:32;9.73;;;5.22;;
71462;SDS011;59266;52.608;13.260;2023-04-01T10:26:03;12.75;;;5.50;;
71462;SDS011;59266;52.608;13.260;2023-04-01T10:29:00;9.00;;;4.90;;
71462;SDS011;59266;52.608;13.260;2023-04-01T10:43:28;9.45;;;5.10;;
71462;SDS011;59266;52.608;13.260;2023-04-01T10:52:12;8.70;;;4.10;;
71462;SDS011;59266;52.608;13.260;2023-04-01T11:09:27;7.57;;;3.72;;
71462;SDS011;59266;52.608;13.260;2023-04-01T11:12:20;7.35;;;3.58;;
71462;SDS011;59266;52.608;13.260;2023-04-01T11:32:29;7.60;;;4.00;;
71462;SDS011;59266;52.608;13.260;2023-04-01T11:38:07;8.60;;;4.47;;
71462;SDS011;59266;52.608;13.260;2023-04-01T11:40:52;9.00;;;4.25;;
71462;SDS011;59266;52.608;13.260;2023-04-01T12:09:11;9.88;;;5.13;;
71462;SDS011;59266;52.608;13.260;2023-04-01T12:20:43;9.57;;;5.15;;
71462;SDS011;59266;52.608;13.260;2023-04-01T12:26:23;12.50;;;5.53;;
71462;SDS011;59266;52.608;13.260;2023-04-01T12:34:53;10.88;;;5.93;;
71462;SDS011;59266;52.608;13.260;2023-04-01T12:37:39;12.07;;;6.38;;
71462;SDS011;59266;52.608;13.260;2023-04-01T12:40:19;13.10;;;6.72;;
71462;SDS011;59266;52.608;13.260;2023-04-01T12:49:52;13.02;;;6.82;;
71462;SDS011;59266;52.608;13.260;2023-04-01T13:09:11;13.80;;;5.53;;
71462;SDS011;59266;52.608;13.260;2023-04-01T13:12:04;11.25;;;5.32;;
71462;SDS011;59266;52.608;13.260;2023-04-01T13:15:04;11.52;;;5.40;;
71462;SDS011;59266;52.608;13.260;2023-04-01T13:17:45;10.88;;;5.47;;
71462;SDS011;59266;52.608;13.260;2023-04-01T13:23:06;10.35;;;5.18;;
71462;SDS011;59266;52.608;13.260;2023-04-01T13:25:53;11.52;;;4.18;;
71462;SDS011;59266;52.608;13.260;2023-04-01T13:28:47;8.77;;;3.58;;
71462;SDS011;59266;52.608;13.260;2023-04-01T13:31:36;9.25;;;4.07;;
71462;SDS011;59266;52.608;13.260;2023-04-01T13:37:47;8.73;;;3.50;;
71462;SDS011;59266;52.608;13.260;2023-04-01T13:42:49;11.73;;;3.75;;
71462;SDS011;59266;52.608;13.260;2023-04-01T13:45:19;8.10;;;3.17;;
71462;SDS011;59266;52.608;13.260;2023-04-01T13:48:07;9.65;;;3.78;;
71462;SDS011;59266;52.608;13.260;2023-04-01T13:51:18;10.45;;;3.22;;
71462;SDS011;59266;52.608;13.260;2023-04-01T13:56:49;7.50;;;2.90;;
71462;SDS011;59266;52.608;13.260;2023-04-01T14:02:29;7.07;;;2.83;;
71462;SDS011;59266;52.608;13.260;2023-04-01T14:08:26;8.93;;;3.28;;
71462;SDS011;59266;52.608;13.260;2023-04-01T14:11:08;7.38;;;2.90;;
71462;SDS011;59266;52.608;13.260;2023-04-01T14:22:32;7.70;;;2.90;;
71462;SDS011;59266;52.608;13.260;2023-04-01T14:34:22;5.53;;;2.28;;
71462;SDS011;59266;52.608;13.260;2023-04-01T14:37:14;8.20;;;2.83;;
71462;SDS011;59266;52.608;13.260;2023-04-01T14:40:16;6.80;;;2.70;;
71462;SDS011;59266;52.608;13.260;2023-04-01T14:45:52;8.35;;;2.70;;
71462;SDS011;59266;52.608;13.260;2023-04-01T14:51:15;8.50;;;3.40;;
71462;SDS011;59266;52.608;13.260;2023-04-01T14:56:42;7.20;;;3.30;;
71462;SDS011;59266;52.608;13.260;2023-04-01T15:07:45;7.78;;;3.50;;
71462;SDS011;59266;52.608;13.260;2023-04-01T15:10:31;7.32;;;3.15;;
71462;SDS011;59266;52.608;13.260;2023-04-01T15:13:30;8.13;;;3.35;;
71462;SDS011;59266;52.608;13.260;2023-04-01T15:16:14;7.75;;;3.40;;
71462;SDS011;59266;52.608;13.260;2023-04-01T15:24:46;8.07;;;3.10;;
71462;SDS011;59266;52.608;13.260;2023-04-01T15:27:34;8.30;;;3.50;;
71462;SDS011;59266;52.608;13.260;2023-04-01T15:30:19;10.23;;;3.15;;
71462;SDS011;59266;52.608;13.260;2023-04-01T15:33:11;8.30;;;3.33;;
71462;SDS011;59266;52.608;13.260;2023-04-01T15:36:02;8.85;;;3.17;;
71462;SDS011;59266;52.608;13.260;2023-04-01T15:38:43;7.93;;;2.83;;
71462;SDS011;59266;52.608;13.260;2023-04-01T15:44:02;6.68;;;2.75;;
71462;SDS011;59266;52.608;13.260;2023-04-01T15:46:53;6.80;;;2.92;;
71462;SDS011;59266;52.608;13.260;2023-04-01T15:49:28;10.40;;;3.58;;
71462;SDS011;59266;52.608;13.260;2023-04-01T15:52:22;7.93;;;3.20;;
71462;SDS011;59266;52.608;13.260;2023-04-01T15:58:03;9.40;;;3.80;;
71462;SDS011;59266;52.608;13.260;2023-04-01T16:03:40;8.98;;;3.45;;
71462;SDS011;59266;52.608;13.260;2023-04-01T16:12:31;8.77;;;3.50;;
71462;SDS011;59266;52.608;13.260;2023-04-01T16:26:26;9.15;;;3.30;;
71462;SDS011;59266;52.608;13.260;2023-04-01T16:29:17;9.90;;;3.55;;
71462;SDS011;59266;52.608;13.260;2023-04-01T16:35:01;10.60;;;3.67;;
71462;SDS011;59266;52.608;13.260;2023-04-01T16:38:09;6.97;;;2.70;;
71462;SDS011;59266;52.608;13.260;2023-04-01T16:43:38;10.40;;;3.72;;
71462;SDS011;59266;52.608;13.260;2023-04-01T16:49:03;9.23;;;3.45;;
71462;SDS011;59266;52.608;13.260;2023-04-01T16:57:25;8.10;;;2.67;;
71462;SDS011;59266;52.608;13.260;2023-04-01T17:00:02;7.93;;;2.78;;
71462;SDS011;59266;52.608;13.260;2023-04-01T17:08:05;7.53;;;3.45;;
71462;SDS011;59266;52.608;13.260;2023-04-01T17:10:50;7.57;;;3.00;;
71462;SDS011;59266;52.608;13.260;2023-04-01T17:16:28;7.40;;;2.65;;
71462;SDS011;59266;52.608;13.260;2023-04-01T17:21:49;7.30;;;2.80;;
71462;SDS011;59266;52.608;13.260;2023-04-01T17:24:47;6.57;;;2.80;;
71462;SDS011;59266;52.608;13.260;2023-04-01T17:27:35;5.75;;;2.50;;
71462;SDS011;59266;52.608;13.260;2023-04-01T17:33:03;8.45;;;3.00;;
71462;SDS011;59266;52.608;13.260;2023-04-01T17:44:34;6.63;;;2.88;;
71462;SDS011;59266;52.608;13.260;2023-04-01T17:53:01;6.57;;;2.47;;
71462;SDS011;59266;52.608;13.260;2023-04-01T17:55:53;6.63;;;2.22;;
71462;SDS011;59266;52.608;13.260;2023-04-01T17:58:45;6.80;;;2.47;;
71462;SDS011;59266;52.608;13.260;2023-04-01T18:07:24;6.70;;;2.40;;
71462;SDS011;59266;52.608;13.260;2023-04-01T18:13:07;6.93;;;2.75;;
71462;SDS011;59266;52.608;13.260;2023-04-01T18:15:55;7.13;;;3.03;;
71462;SDS011;59266;52.608;13.260;2023-04-01T18:21:33;8.35;;;3.08;;
71462;SDS011;59266;52.608;13.260;2023-04-01T18:24:43;8.18;;;3.30;;
71462;SDS011;59266;52.608;13.260;2023-04-01T18:30:01;8.95;;;3.35;;
71462;SDS011;59266;52.608;13.260;2023-04-01T18:32:41;8.52;;;3.42;;
71462;SDS011;59266;52.608;13.260;2023-04-01T18:38:29;9.60;;;3.33;;
71462;SDS011;59266;52.608;13.260;2023-04-01T18:41:14;10.07;;;3.50;;
71462;SDS011;59266;52.608;13.260;2023-04-01T18:43:56;10.27;;;3.28;;
71462;SDS011;59266;52.608;13.260;2023-04-01T18:46:38;9.23;;;3.28;;
71462;SDS011;59266;52.608;13.260;2023-04-01T18:49:33;8.98;;;3.63;;
71462;SDS011;59266;52.608;13.260;2023-04-01T18:52:23;10.10;;;3.67;;
71462;SDS011;59266;52.608;13.260;2023-04-01T18:57:52;10.60;;;3.47;;
71462;SDS011;59266;52.608;13.260;2023-04-01T19:03:24;9.73;;;3.78;;
71462;SDS011;59266;52.608;13.260;2023-04-01T19:06:00;11.43;;;3.70;;
71462;SDS011;59266;52.608;13.260;2023-04-01T19:08:41;11.85;;;4.32;;
71462;SDS011;59266;52.608;13.260;2023-04-01T19:11:30;12.82;;;4.55;;
71462;SDS011;59266;52.608;13.260;2023-04-01T19:14:13;10.02;;;3.83;;
71462;SDS011;59266;52.608;13.260;2023-04-01T19:17:02;10.25;;;4.38;;
71462;SDS011;59266;52.608;13.260;2023-04-01T19:22:33;13.10;;;5.25;;
71462;SDS011;59266;52.608;13.260;2023-04-01T19:30:35;11.13;;;4.43;;
71462;SDS011;59266;52.608;13.260;2023-04-01T19:33:26;16.17;;;5.05;;
71462;SDS011;59266;52.608;13.260;2023-04-01T19:36:24;13.82;;;4.85;;
71462;SDS011;59266;52.608;13.260;2023-04-01T19:39:24;16.20;;;5.60;;
71462;SDS011;59266;52.608;13.260;2023-04-01T19:45:00;12.82;;;5.00;;
71462;SDS011;59266;52.608;13.260;2023-04-01T19:47:49;14.23;;;4.95;;
71462;SDS011;59266;52.608;13.260;2023-04-01T19:50:44;14.85;;;4.93;;
71462;SDS011;59266;52.608;13.260;2023-04-01T19:56:17;13.90;;;5.47;;
71462;SDS011;59266;52.608;13.260;2023-04-01T19:58:52;12.60;;;5.05;;
71462;SDS011;59266;52.608;13.260;2023-04-01T20:04:10;16.83;;;5.28;;
71462;SDS011;59266;52.608;13.260;2023-04-01T20:06:52;11.73;;;4.90;;
71462;SDS011;59266;52.608;13.260;2023-04-01T20:09:47;14.00;;;4.13;;
71462;SDS011;59266;52.608;13.260;2023-04-01T20:15:33;13.77;;;5.70;;
71462;SDS011;59266;52.608;13.260;2023-04-01T20:18:21;15.30;;;5.80;;
71462;SDS011;59266;52.608;13.260;2023-04-01T20:23:34;18.48;;;5.30;;
71462;SDS011;59266;52.608;13.260;2023-04-01T20:26:12;9.82;;;3.83;;
71462;SDS011;59266;52.608;13.260;2023-04-01T20:37:54;14.57;;;6.25;;
71462;SDS011;59266;52.608;13.260;2023-04-01T20:40:40;15.13;;;6.40;;
71462;SDS011;59266;52.608;13.260;2023-04-01T20:46:32;16.60;;;5.90;;
71462;SDS011;59266;52.608;13.260;2023-04-01T20:52:25;17.50;;;6.18;;
71462;SDS011;59266;52.608;13.260;2023-04-01T21:00:37;10.25;;;4.82;;
71462;SDS011;59266;52.608;13.260;2023-04-01T21:08:59;13.85;;;5.03;;
71462;SDS011;59266;52.608;13.260;2023-04-01T21:11:41;11.82;;;4.97;;
71462;SDS011;59266;52.608;13.260;2023-04-01T21:14:35;12.82;;;5.07;;
71462;SDS011;59266;52.608;13.260;2023-04-01T21:17:35;13.40;;;4.93;;
71462;SDS011;59266;52.608;13.260;2023-04-01T21:26:52;9.55;;;4.15;;
71462;SDS011;59266;52.608;13.260;2023-04-01T21:32:26;14.75;;;5.25;;
71462;SDS011;59266;52.608;13.260;2023-04-01T21:37:58;12.65;;;5.28;;
71462;SDS011;59266;52.608;13.260;2023-04-01T21:40:37;11.35;;;4.68;;
71462;SDS011;59266;52.608;13.260;2023-04-01T21:43:29;13.15;;;5.00;;
71462;SDS011;59266;52.608;13.260;2023-04-01T21:46:25;12.40;;;4.72;;
71462;SDS011;59266;52.608;13.260;2023-04-01T21:49:16;11.27;;;4.57;;
71462;SDS011;59266;52.608;13.260;2023-04-01T21:58:13;14.80;;;4.30;;
71462;SDS011;59266;52.608;13.260;2023-04-01T22:01:06;14.38;;;4.85;;
71462;SDS011;59266;52.608;13.260;2023-04-01T22:06:34;11.18;;;5.07;;
71462;SDS011;59266;52.608;13.260;2023-04-01T22:15:08;13.73;;;5.13;;
71462;SDS011;59266;52.608;13.260;2023-04-01T22:17:50;11.30;;;4.47;;
71462;SDS011;59266;52.608;13.260;2023-04-01T22:20:28;11.52;;;4.53;;
71462;SDS011;59266;52.608;13.260;2023-04-01T22:25:55;13.52;;;4.75;;
71462;SDS011;59266;52.608;13.260;2023-04-01T22:31:49;12.73;;;5.05;;
71462;SDS011;59266;52.608;13.260;2023-04-01T22:43:27;13.40;;;4.78;;
71462;SDS011;59266;52.608;13.260;2023-04-01T22:46:23;10.55;;;4.57;;
71462;SDS011;59266;52.608;13.260;2023-04-01T22:49:05;13.40;;;5.85;;
71462;SDS011;59266;52.608;13.260;2023-04-01T22:51:40;12.23;;;4.05;;
71462;SDS011;59266;52.608;13.260;2023-04-01T22:54:13;8.90;;;3.15;;
71462;SDS011;59266;52.608;13.260;2023-04-01T22:56:49;8.68;;;3.38;;
71462;SDS011;59266;52.608;13.260;2023-04-01T22:59:22;10.07;;;2.78;;
71462;SDS011;59266;52.608;13.260;2023-04-01T23:01:55;7.97;;;3.00;;
71462;SDS011;59266;52.608;13.260;2023-04-01T23:04:39;8.60;;;2.67;;
71462;SDS011;59266;52.608;13.260;2023-04-01T23:07:23;9.35;;;3.10;;
71462;SDS011;59266;52.608;13.260;2023-04-01T23:10:26;11.82;;;3.72;;
71462;SDS011;59266;52.608;13.260;2023-04-01T23:12:57;10.95;;;3.30;;
71462;SDS011;59266;52.608;13.260;2023-04-01T23:15:38;8.23;;;2.92;;
71462;SDS011;59266;52.608;13.260;2023-04-01T23:18:27;7.70;;;3.28;;
71462;SDS011;59266;52.608;13.260;2023-04-01T23:29:36;7.53;;;3.55;;
71462;SDS011;59266;52.608;13.260;2023-04-01T23:32:16;10.68;;;3.17;;
71462;SDS011;59266;52.608;13.260;2023-04-01T23:38:28;9.48;;;3.60;;
71462;SDS011;59266;52.608;13.260;2023-04-01T23:40:54;8.30;;;3.22;;
71462;SDS011;59266;52.608;13.260;2023-04-01T23:43:32;14.07;;;4.03;;
71462;SDS011;59266;52.608;13.260;2023-04-01T23:46:02;7.18;;;3.22;;
71462;SDS011;59266;52.608;13.260;2023-04-01T23:48:36;8.50;;;2.65;;